createdAt,value
2023-01-25T00:00:11.856Z,27.56
2023-01-25T00:02:41.994Z,27.55
2023-01-25T00:05:12.583Z,27.59
2023-01-25T00:07:42.661Z,27.55
2023-01-25T00:10:13.216Z,27.52
2023-01-25T00:12:43.457Z,27.50
2023-01-25T00:15:13.816Z,27.54
2023-01-25T00:17:43.849Z,27.52
2023-01-25T00:20:13.915Z,27.50
2023-01-25T00:22:44.115Z,27.50
2023-01-25T00:25:14.138Z,27.47
2023-01-25T00:27:43.942Z,27.48
2023-01-25T00:30:14.172Z,27.48
2023-01-25T00:32:51.739Z,27.50
2023-01-25T00:35:21.728Z,27.48
2023-01-25T00:37:55.047Z,27.47
2023-01-25T00:40:25.116Z,27.50
2023-01-25T00:42:54.967Z,27.50
2023-01-25T00:45:24.915Z,27.48
2023-01-25T00:47:58.533Z,27.52
2023-01-25T00:50:28.650Z,27.49
2023-01-25T00:52:59.632Z,27.48
2023-01-25T00:55:29.687Z,27.49
2023-01-25T00:57:59.834Z,27.50
2023-01-25T01:00:29.863Z,27.48
2023-01-25T01:03:00.543Z,27.50
2023-01-25T01:05:31.609Z,27.53
2023-01-25T01:08:01.693Z,27.51
2023-01-25T01:10:31.609Z,27.50
2023-01-25T01:13:01.525Z,27.53
2023-01-25T01:15:31.685Z,27.51
2023-01-25T01:18:01.834Z,27.51
2023-01-25T01:20:31.786Z,27.52
2023-01-25T01:23:01.699Z,27.53
2023-01-25T01:25:31.534Z,27.49
2023-01-25T01:28:01.462Z,27.54
2023-01-25T01:30:31.370Z,27.57
2023-01-25T01:33:01.357Z,27.54
2023-01-25T01:35:33.284Z,27.57
2023-01-25T01:38:03.302Z,27.56
2023-01-25T01:40:33.305Z,27.56
2023-01-25T01:43:09.989Z,27.54
2023-01-25T01:45:51.306Z,27.57
2023-01-25T01:48:48.438Z,27.53
2023-01-25T01:51:23.996Z,27.57
2023-01-25T01:54:05.645Z,27.59
2023-01-25T01:56:53.946Z,27.58
2023-01-25T01:59:28.507Z,27.54
2023-01-25T02:01:59.051Z,27.59
2023-01-25T02:04:30.901Z,27.59
2023-01-25T02:07:24.775Z,27.62
2023-01-25T02:09:54.890Z,27.60
2023-01-25T02:12:26.385Z,27.59
2023-01-25T02:14:57.467Z,27.58
2023-01-25T02:17:36.978Z,27.62
2023-01-25T02:20:09.612Z,27.60
2023-01-25T02:23:02.543Z,27.61
2023-01-25T02:25:33.123Z,27.60
2023-01-25T02:28:12.954Z,27.63
2023-01-25T02:30:45.294Z,27.62
2023-01-25T02:33:15.902Z,27.63
2023-01-25T02:35:58.632Z,27.62
2023-01-25T02:38:29.220Z,27.62
2023-01-25T02:41:09.463Z,27.61
2023-01-25T02:43:39.921Z,27.64
2023-01-25T02:46:23.695Z,27.66
2023-01-25T02:48:54.063Z,27.72
2023-01-25T02:51:29.715Z,27.64
2023-01-25T02:54:00.569Z,27.66
2023-01-25T02:56:31.937Z,27.68
2023-01-25T02:59:07.659Z,27.70
2023-01-25T03:01:40.985Z,27.66
2023-01-25T03:04:11.712Z,27.64
2023-01-25T03:06:42.512Z,27.65
2023-01-25T03:09:13.966Z,27.71
2023-01-25T03:11:48.579Z,27.72
2023-01-25T03:14:20.436Z,27.69
2023-01-25T03:16:50.478Z,27.72
2023-01-25T03:19:23.541Z,27.70
2023-01-25T03:21:53.620Z,27.72
2023-01-25T03:24:24.040Z,27.74
2023-01-25T03:27:12.543Z,27.78
2023-01-25T03:30:05.309Z,27.75
2023-01-25T03:32:36.428Z,27.76
2023-01-25T03:35:11.223Z,27.75
2023-01-25T03:37:41.468Z,27.78
2023-01-25T03:40:12.425Z,27.76
2023-01-25T03:42:46.631Z,27.77
2023-01-25T03:45:16.820Z,27.76
2023-01-25T03:47:46.744Z,27.76
2023-01-25T03:50:17.845Z,27.77
2023-01-25T03:52:59.582Z,27.81
2023-01-25T03:55:35.885Z,27.81
2023-01-25T03:58:06.195Z,27.84
2023-01-25T04:00:37.658Z,27.85
2023-01-25T04:03:07.896Z,27.88
2023-01-25T04:05:38.325Z,27.86
2023-01-25T04:08:08.622Z,27.87
2023-01-25T04:10:42.050Z,27.88
2023-01-25T04:13:12.404Z,27.90
2023-01-25T04:15:42.684Z,27.89
2023-01-25T04:18:22.599Z,27.90
2023-01-25T04:20:56.465Z,27.91
2023-01-25T04:23:28.039Z,27.91
2023-01-25T04:26:05.461Z,27.93
2023-01-25T04:28:37.526Z,27.97
2023-01-25T04:31:08.510Z,27.99
2023-01-25T04:33:42.958Z,28.00
2023-01-25T04:36:13.982Z,28.01
2023-01-25T04:38:44.416Z,28.04
2023-01-25T04:41:14.987Z,28.06
2023-01-25T04:43:48.237Z,28.06
2023-01-25T04:46:19.089Z,28.07
2023-01-25T04:48:49.134Z,28.09
2023-01-25T04:51:20.428Z,28.09
2023-01-25T04:53:50.524Z,28.13
2023-01-25T04:56:20.415Z,28.15
2023-01-25T04:58:55.771Z,28.13
2023-01-25T05:01:25.953Z,28.13
2023-01-25T05:03:56.429Z,28.11
2023-01-25T05:06:40.600Z,28.13
2023-01-25T05:09:12.379Z,28.13
2023-01-25T05:11:43.109Z,28.17
2023-01-25T05:14:36.326Z,28.19
2023-01-25T05:17:06.944Z,28.16
2023-01-25T05:19:37.590Z,28.16
2023-01-25T05:22:09.842Z,28.17
2023-01-25T05:24:47.178Z,28.16
2023-01-25T05:27:21.053Z,28.16
2023-01-25T05:29:57.789Z,28.17
2023-01-25T05:32:41.508Z,28.20
2023-01-25T05:35:12.130Z,28.19
2023-01-25T05:37:42.788Z,28.19
2023-01-25T05:40:19.033Z,28.20
2023-01-25T05:42:56.963Z,28.24
2023-01-25T05:45:29.259Z,28.23
2023-01-25T05:48:01.563Z,28.22
2023-01-25T05:50:32.607Z,28.24
2023-01-25T05:53:15.579Z,28.25
2023-01-25T05:55:45.609Z,28.24
2023-01-25T05:58:18.972Z,28.25
2023-01-25T06:00:49.780Z,28.24
2023-01-25T06:03:34.340Z,28.22
2023-01-25T06:06:05.595Z,28.24
2023-01-25T06:08:37.823Z,28.26
2023-01-25T06:11:12.172Z,28.26
2023-01-25T06:13:47.308Z,28.27
2023-01-25T06:16:18.859Z,28.27
2023-01-25T06:18:57.756Z,28.29
2023-01-25T06:21:46.332Z,28.27
2023-01-25T06:24:16.475Z,28.30
2023-01-25T06:26:46.306Z,28.30
2023-01-25T06:29:16.147Z,28.30
2023-01-25T06:31:46.079Z,28.30
2023-01-25T06:34:16.013Z,28.27
2023-01-25T06:36:46.557Z,28.29
2023-01-25T06:39:16.855Z,28.30
2023-01-25T06:41:46.726Z,28.29
2023-01-25T06:44:16.559Z,28.31
2023-01-25T06:46:46.498Z,28.29
2023-01-25T06:49:16.705Z,28.32
2023-01-25T06:51:46.755Z,28.33
2023-01-25T06:54:16.650Z,28.32
2023-01-25T06:56:46.693Z,28.33
2023-01-25T06:59:18.134Z,28.33
2023-01-25T07:01:48.451Z,28.34
2023-01-25T07:04:18.659Z,28.35
2023-01-25T07:06:48.693Z,28.37
2023-01-25T07:09:18.588Z,28.37
2023-01-25T07:11:48.449Z,28.38
2023-01-25T07:14:18.364Z,28.37
2023-01-25T07:16:48.275Z,28.37
2023-01-25T07:19:20.042Z,28.36
2023-01-25T07:21:50.107Z,28.35
2023-01-25T07:24:22.106Z,28.36
2023-01-25T07:26:52.244Z,28.35
2023-01-25T07:29:22.141Z,28.36
2023-01-25T07:31:52.311Z,28.37
2023-01-25T07:34:22.360Z,28.36
2023-01-25T07:36:52.321Z,28.36
2023-01-25T07:39:22.186Z,28.37
2023-01-25T07:41:52.215Z,28.38
2023-01-25T07:44:23.279Z,28.43
2023-01-25T07:46:57.677Z,28.40
2023-01-25T07:49:27.806Z,28.40
2023-01-25T07:51:57.611Z,28.41
2023-01-25T07:54:27.546Z,28.43
2023-01-25T07:56:57.667Z,28.42
2023-01-25T07:59:28.192Z,28.41
2023-01-25T08:01:58.503Z,28.40
2023-01-25T08:04:28.512Z,28.40
2023-01-25T08:06:59.255Z,28.38
2023-01-25T08:09:30.522Z,28.41
2023-01-25T08:12:00.560Z,28.40
2023-01-25T08:14:30.628Z,28.41
2023-01-25T08:17:00.563Z,28.41
2023-01-25T08:19:33.484Z,28.40
2023-01-25T08:22:03.559Z,28.44
2023-01-25T08:24:33.612Z,28.43
2023-01-25T08:27:03.762Z,28.45
2023-01-25T08:29:33.881Z,28.43
2023-01-25T08:32:06.554Z,28.43
2023-01-25T08:34:37.309Z,28.46
2023-01-25T08:37:07.395Z,28.46
2023-01-25T08:39:37.289Z,28.44
2023-01-25T08:42:08.423Z,28.45
2023-01-25T08:44:38.549Z,28.45
2023-01-25T08:47:08.793Z,28.41
2023-01-25T08:49:38.772Z,28.42
2023-01-25T08:52:08.671Z,28.46
2023-01-25T08:54:38.597Z,28.44
2023-01-25T08:57:08.590Z,28.47
2023-01-25T08:59:38.592Z,28.48
2023-01-25T09:02:09.046Z,28.48
2023-01-25T09:04:39.253Z,28.48
2023-01-25T09:07:09.968Z,28.46
2023-01-25T09:09:40.038Z,28.47
2023-01-25T09:12:11.995Z,28.50
2023-01-25T09:14:45.697Z,28.51
2023-01-25T09:17:15.667Z,28.48
2023-01-25T09:19:45.811Z,28.49
2023-01-25T09:22:15.898Z,28.49
2023-01-25T09:24:45.844Z,28.50
2023-01-25T09:27:15.837Z,28.48
2023-01-25T09:29:59.962Z,28.47
2023-01-25T09:32:31.360Z,28.48
2023-01-25T09:35:01.404Z,28.46
2023-01-25T09:37:31.209Z,28.47
2023-01-25T09:40:01.192Z,28.48
2023-01-25T09:42:51.406Z,28.48
2023-01-25T09:45:34.789Z,28.47
2023-01-25T09:48:25.509Z,28.47
2023-01-25T09:51:18.599Z,28.48
2023-01-25T09:53:55.117Z,28.49
2023-01-25T09:56:29.200Z,28.50
2023-01-25T09:59:22.064Z,28.50
2023-01-25T10:02:00.158Z,28.47
2023-01-25T10:04:44.442Z,28.49
2023-01-25T10:07:27.732Z,28.47
2023-01-25T10:10:08.096Z,28.44
2023-01-25T10:12:40.655Z,28.48
2023-01-25T10:15:23.003Z,28.46
2023-01-25T10:18:04.333Z,28.47
2023-01-25T10:20:43.035Z,28.47
2023-01-25T10:23:46.247Z,28.46
2023-01-25T10:26:29.375Z,28.42
2023-01-25T10:29:14.146Z,28.47
2023-01-25T10:31:52.435Z,28.45
2023-01-25T10:34:28.805Z,28.47
2023-01-25T10:37:07.384Z,28.47
2023-01-25T10:39:44.466Z,28.45
2023-01-25T10:42:17.758Z,28.41
2023-01-25T10:44:47.737Z,28.41
2023-01-25T10:47:31.445Z,28.44
2023-01-25T10:50:02.562Z,28.45
2023-01-25T10:52:34.517Z,28.45
2023-01-25T10:55:28.385Z,28.42
2023-01-25T10:58:00.215Z,28.43
2023-01-25T11:00:41.014Z,28.46
2023-01-25T11:03:24.409Z,28.45
2023-01-25T11:05:59.600Z,28.44
2023-01-25T11:08:40.298Z,28.44
2023-01-25T11:11:28.949Z,28.44
2023-01-25T11:13:59.153Z,28.43
2023-01-25T11:16:39.854Z,28.45
2023-01-25T11:19:31.116Z,28.44
2023-01-25T11:22:02.567Z,28.38
2023-01-25T11:24:36.630Z,28.40
2023-01-25T11:27:15.739Z,28.43
2023-01-25T11:29:49.066Z,28.42
2023-01-25T11:32:25.966Z,28.41
2023-01-25T11:34:57.288Z,28.38
2023-01-25T11:37:30.253Z,28.38
2023-01-25T11:40:39.011Z,28.37
2023-01-25T11:43:21.226Z,28.34
2023-01-25T11:46:32.772Z,28.37
2023-01-25T11:49:28.250Z,28.38
2023-01-25T11:52:30.637Z,28.38
2023-01-25T11:55:22.006Z,28.38
2023-01-25T11:58:39.489Z,28.37
2023-01-25T12:01:17.365Z,28.40
2023-01-25T12:04:12.386Z,28.35
2023-01-25T12:06:57.755Z,28.34
2023-01-25T12:09:52.955Z,28.34
2023-01-25T12:12:52.232Z,28.34
2023-01-25T12:15:49.173Z,28.35
2023-01-25T12:18:35.544Z,28.32
2023-01-25T12:21:22.891Z,28.30
2023-01-25T12:24:22.479Z,28.31
2023-01-25T12:27:27.947Z,28.31
2023-01-25T12:30:16.276Z,28.29
2023-01-25T12:32:59.511Z,28.31
2023-01-25T12:35:38.248Z,28.30
2023-01-25T12:38:40.549Z,28.29
2023-01-25T12:41:33.532Z,28.29
2023-01-25T12:44:11.841Z,28.30
2023-01-25T12:47:30.688Z,28.30
2023-01-25T12:50:16.410Z,28.26
2023-01-25T12:52:55.019Z,28.26
2023-01-25T12:55:25.346Z,28.26
2023-01-25T12:58:21.611Z,28.31
2023-01-25T13:01:22.517Z,28.27
2023-01-25T13:04:11.441Z,28.27
2023-01-25T13:06:55.722Z,28.24
2023-01-25T13:09:32.271Z,28.25
2023-01-25T13:12:06.332Z,28.27
2023-01-25T13:14:43.857Z,28.27
2023-01-25T13:17:18.312Z,28.28
2023-01-25T13:19:48.346Z,28.29
2023-01-25T13:22:47.054Z,28.22
2023-01-25T13:25:19.706Z,28.25
2023-01-25T13:27:50.220Z,28.23
2023-01-25T13:30:36.950Z,28.19
2023-01-25T13:34:46.525Z,28.19
2023-01-25T13:37:28.399Z,28.20
2023-01-25T13:40:06.462Z,28.17
2023-01-25T13:42:41.122Z,28.18
2023-01-25T13:45:21.143Z,28.15
2023-01-25T13:48:06.412Z,28.13
2023-01-25T13:50:38.473Z,28.13
2023-01-25T13:53:20.167Z,28.11
2023-01-25T13:55:57.196Z,28.10
2023-01-25T13:58:31.833Z,28.08
2023-01-25T14:01:21.662Z,28.02
2023-01-25T14:03:58.727Z,28.00
2023-01-25T14:06:33.051Z,28.00
2023-01-25T14:09:09.513Z,27.97
2023-01-25T14:11:45.982Z,27.98
2023-01-25T14:14:32.932Z,27.96
2023-01-25T14:19:43.528Z,27.93
2023-01-25T14:22:28.408Z,27.94
2023-01-25T14:25:14.131Z,27.98
2023-01-25T14:27:47.073Z,27.99
2023-01-25T14:30:22.955Z,28.02
2023-01-25T14:32:54.107Z,28.02
2023-01-25T14:35:43.669Z,28.04
2023-01-25T14:38:23.305Z,28.06
2023-01-25T14:40:53.653Z,28.05
2023-01-25T14:43:23.989Z,28.04
2023-01-25T14:45:53.930Z,28.05
2023-01-25T14:48:43.671Z,28.07
2023-01-25T14:51:16.938Z,28.07
2023-01-25T14:53:48.812Z,28.07
2023-01-25T14:56:37.158Z,28.04
2023-01-25T14:59:07.427Z,28.06
2023-01-25T15:01:45.925Z,28.05
2023-01-25T15:04:16.185Z,28.06
2023-01-25T15:06:52.430Z,28.07
2023-01-25T15:10:03.318Z,28.07
2023-01-25T15:12:35.277Z,28.08
2023-01-25T15:15:05.364Z,28.09
2023-01-25T15:17:48.171Z,28.08
2023-01-25T15:20:37.000Z,28.08
2023-01-25T15:23:28.462Z,28.10
2023-01-25T15:26:00.714Z,28.08
2023-01-25T15:28:38.827Z,28.09
2023-01-25T15:31:09.093Z,28.10
2023-01-25T15:33:39.258Z,28.06
2023-01-25T15:36:08.875Z,28.07
2023-01-25T15:38:38.500Z,28.04
2023-01-25T15:41:08.136Z,28.11
2023-01-25T15:43:37.963Z,28.11
2023-01-25T15:46:08.371Z,28.03
2023-01-25T15:48:44.677Z,28.04
2023-01-25T15:51:15.306Z,28.06
2023-01-25T15:53:45.197Z,28.06
2023-01-25T15:56:22.435Z,28.06
2023-01-25T15:58:55.840Z,28.04
2023-01-25T16:01:29.331Z,28.03
2023-01-25T16:04:00.169Z,28.05
2023-01-25T16:06:36.183Z,28.02
2023-01-25T16:09:14.447Z,28.01
2023-01-25T16:11:44.357Z,28.01
2023-01-25T16:14:14.001Z,28.01
2023-01-25T16:16:46.441Z,28.01
2023-01-25T16:19:17.511Z,28.03
2023-01-25T16:21:47.556Z,28.01
2023-01-25T16:24:17.536Z,27.99
2023-01-25T16:26:48.713Z,28.00
2023-01-25T16:29:18.437Z,27.98
2023-01-25T16:31:48.092Z,27.99
2023-01-25T16:34:18.062Z,27.98
2023-01-25T16:36:52.335Z,27.96
2023-01-25T16:39:23.665Z,27.98
2023-01-25T16:41:53.528Z,27.96
2023-01-25T16:44:23.153Z,27.99
2023-01-25T16:46:53.354Z,27.98
2023-01-25T16:49:24.309Z,28.00
2023-01-25T16:51:54.147Z,27.95
2023-01-25T16:54:23.960Z,27.94
2023-01-25T16:56:54.013Z,27.92
2023-01-25T16:59:24.406Z,27.89
2023-01-25T17:01:54.566Z,27.93
2023-01-25T17:04:24.241Z,27.91
2023-01-25T17:06:55.410Z,27.97
2023-01-25T17:09:26.008Z,27.90
2023-01-25T17:11:56.487Z,27.88
2023-01-25T17:14:26.336Z,27.89
2023-01-25T17:16:56.550Z,27.88
2023-01-25T17:19:27.278Z,27.89
2023-01-25T17:21:57.062Z,27.91
2023-01-25T17:24:26.668Z,27.95
2023-01-25T17:27:00.052Z,27.91
2023-01-25T17:29:29.832Z,27.89
2023-01-25T17:31:59.632Z,27.85
2023-01-25T17:34:29.792Z,27.86
2023-01-25T17:36:59.595Z,27.87
2023-01-25T17:39:29.196Z,27.85
2023-01-25T17:41:58.979Z,27.83
2023-01-25T17:44:28.606Z,27.84
2023-01-25T17:46:58.283Z,27.84
2023-01-25T17:49:28.663Z,27.81
2023-01-25T17:51:58.571Z,27.79
2023-01-25T17:54:28.131Z,27.80
2023-01-25T17:56:58.673Z,27.81
2023-01-25T17:59:28.337Z,27.81
2023-01-25T18:01:58.006Z,27.81
2023-01-25T18:04:27.899Z,27.79
2023-01-25T18:06:57.697Z,27.81
2023-01-25T18:09:27.982Z,27.82
2023-01-25T18:11:57.660Z,27.78
2023-01-25T18:14:27.350Z,27.75
2023-01-25T18:16:57.011Z,27.78
2023-01-25T18:19:26.535Z,27.77
2023-01-25T18:21:56.188Z,27.75
2023-01-25T18:24:32.167Z,27.75
2023-01-25T18:27:03.753Z,27.72
2023-01-25T18:29:39.755Z,27.81
2023-01-25T18:32:09.511Z,27.79
2023-01-25T18:34:39.020Z,27.76
2023-01-25T18:37:21.164Z,27.81
2023-01-25T18:39:54.546Z,27.77
2023-01-25T18:42:25.455Z,27.80
2023-01-25T18:44:55.184Z,27.76
2023-01-25T18:47:25.263Z,27.74
2023-01-25T18:49:55.377Z,27.72
2023-01-25T18:52:25.796Z,27.70
2023-01-25T18:54:55.790Z,27.73
2023-01-25T18:57:25.691Z,27.66
2023-01-25T18:59:57.470Z,27.71
2023-01-25T19:02:29.093Z,27.70
2023-01-25T19:04:58.859Z,27.74
2023-01-25T19:07:28.605Z,27.69
2023-01-25T19:09:58.119Z,27.65
2023-01-25T19:12:27.693Z,27.69
2023-01-25T19:14:57.280Z,27.66
2023-01-25T19:17:26.921Z,27.66
2023-01-25T19:19:56.370Z,27.66
2023-01-25T19:22:27.759Z,27.66
2023-01-25T19:24:57.748Z,27.68
2023-01-25T19:27:27.285Z,27.65
2023-01-25T19:29:56.788Z,27.64
2023-01-25T19:32:27.796Z,27.63
2023-01-25T19:34:57.527Z,27.64
2023-01-25T19:37:27.271Z,27.66
2023-01-25T19:39:56.792Z,27.62
2023-01-25T19:42:26.489Z,27.62
2023-01-25T19:44:55.935Z,27.60
2023-01-25T19:47:25.656Z,27.64
2023-01-25T19:49:56.884Z,27.62
2023-01-25T19:52:26.534Z,27.57
2023-01-25T19:54:55.984Z,27.58
2023-01-25T19:57:25.633Z,27.62
2023-01-25T19:59:55.112Z,27.59
2023-01-25T20:02:24.696Z,27.60
2023-01-25T20:04:54.343Z,27.59
2023-01-25T20:07:24.560Z,27.58
2023-01-25T20:09:54.318Z,27.54
2023-01-25T20:12:24.011Z,27.58
2023-01-25T20:14:53.765Z,27.55
2023-01-25T20:17:23.193Z,27.56
2023-01-25T20:19:52.968Z,27.58
2023-01-25T20:22:22.445Z,27.57
2023-01-25T20:24:52.117Z,27.53
2023-01-25T20:27:21.632Z,27.62
2023-01-25T20:29:51.358Z,27.55
2023-01-25T20:32:32.364Z,27.54
2023-01-25T20:35:05.665Z,27.55
2023-01-25T20:37:35.260Z,27.66
2023-01-25T20:40:04.845Z,27.62
2023-01-25T20:42:34.297Z,27.60
2023-01-25T20:45:03.841Z,27.55
2023-01-25T20:47:33.311Z,27.53
2023-01-25T20:50:02.796Z,27.48
2023-01-25T20:52:32.325Z,27.50
2023-01-25T20:55:01.861Z,27.54
2023-01-25T20:57:31.293Z,27.51
2023-01-25T21:00:00.829Z,27.51
2023-01-25T21:02:30.379Z,27.48
2023-01-25T21:04:59.861Z,27.48
2023-01-25T21:07:29.295Z,27.49
2023-01-25T21:09:58.761Z,27.48
2023-01-25T21:12:28.589Z,27.48
2023-01-25T21:14:58.706Z,27.52
2023-01-25T21:17:28.588Z,27.47
2023-01-25T21:20:00.115Z,27.49
2023-01-25T21:22:32.968Z,27.49
2023-01-25T21:25:02.678Z,27.50
2023-01-25T21:27:33.051Z,27.53
2023-01-25T21:30:02.696Z,27.49
2023-01-25T21:32:32.136Z,27.46
2023-01-25T21:35:01.801Z,27.38
2023-01-25T21:37:31.550Z,27.49
2023-01-25T21:40:01.159Z,27.48
2023-01-25T21:42:32.404Z,27.44
2023-01-25T21:45:20.569Z,27.53
2023-01-25T21:47:50.226Z,27.45
2023-01-25T21:50:38.208Z,27.43
2023-01-25T21:53:07.819Z,27.46
2023-01-25T21:55:37.299Z,27.40
2023-01-25T21:58:07.224Z,27.40
2023-01-25T22:00:38.167Z,27.40
2023-01-25T22:05:16.339Z,27.40
2023-01-25T22:07:45.945Z,27.35
2023-01-25T22:10:16.311Z,27.39
2023-01-25T22:12:47.694Z,27.36
2023-01-25T22:15:17.453Z,27.36
2023-01-25T22:17:47.329Z,27.32
2023-01-25T22:20:17.011Z,27.33
2023-01-25T22:22:46.515Z,27.29
2023-01-25T22:25:16.224Z,27.35
2023-01-25T22:27:52.963Z,27.36
2023-01-25T22:30:22.713Z,27.33
2023-01-25T22:32:52.182Z,27.35
2023-01-25T22:35:21.807Z,27.33
2023-01-25T22:37:51.286Z,27.32
2023-01-25T22:40:20.918Z,27.26
2023-01-25T22:42:50.344Z,27.26
2023-01-25T22:45:19.999Z,27.26
2023-01-25T22:47:49.507Z,27.26
2023-01-25T22:50:19.206Z,27.25
2023-01-25T22:52:51.098Z,27.28
2023-01-25T22:55:20.699Z,27.28
2023-01-25T22:57:50.214Z,27.25
2023-01-25T23:01:20.174Z,27.16
2023-01-25T23:03:51.823Z,27.08
2023-01-25T23:06:29.394Z,27.05
2023-01-25T23:09:05.419Z,26.94
2023-01-25T23:11:39.138Z,26.93
2023-01-25T23:14:33.205Z,26.97
2023-01-25T23:17:21.292Z,26.98
2023-01-25T23:19:51.274Z,26.99
2023-01-25T23:22:21.084Z,26.99
2023-01-25T23:24:51.128Z,27.00
2023-01-25T23:27:21.037Z,27.01
2023-01-25T23:29:52.037Z,27.01
2023-01-25T23:32:22.541Z,27.03
2023-01-25T23:34:55.336Z,27.02
2023-01-25T23:37:25.921Z,27.02
2023-01-25T23:39:56.101Z,27.01
2023-01-25T23:42:26.310Z,27.03
2023-01-25T23:44:56.159Z,27.00
2023-01-25T23:47:26.042Z,26.98
2023-01-25T23:49:56.068Z,27.00
2023-01-25T23:52:26.003Z,26.99
2023-01-25T23:54:55.927Z,26.99
2023-01-25T23:57:25.823Z,26.99
2023-01-25T23:59:55.750Z,26.98
